Airport View

Enter AWOS ICAO identifier for current METAR.

ex. KFNL

KHYA 101429Z 20009KT 10SM FEW009 27/23 A3002 RMK AO2 T02720228

10 Aug 2020 14:59

Phone: 508-862-2601

Other Area AWOS: KFMH - KCQX - KMVY - KPVC

TAF KHYA 101120Z 1012/1112 22008KT P6SM BKN008 FM101300 22008KT P6SM SCT250 FM102100 20013G21KT P6SM SCT250 FM110800 22009KT 6SM BR SCT080 FM110900 22009KT 5SM BR BKN080 FM111000 22009KT P6SM BKN080